sensor_id;sensor_type;location;lat;lon;timestamp;P1;durP1;ratioP1;P2;durP2;ratioP2
73266;SDS011;61495;53.400;7.608;2023-03-01T00:01:24;17.75;;;9.07;;
73266;SDS011;61495;53.400;7.608;2023-03-01T00:03:52;14.52;;;7.60;;
73266;SDS011;61495;53.400;7.608;2023-03-01T00:06:18;16.75;;;9.95;;
73266;SDS011;61495;53.400;7.608;2023-03-01T00:08:44;14.85;;;8.05;;
73266;SDS011;61495;53.400;7.608;2023-03-01T00:11:17;11.98;;;7.07;;
73266;SDS011;61495;53.400;7.608;2023-03-01T00:13:52;15.98;;;7.68;;
73266;SDS011;61495;53.400;7.608;2023-03-01T00:16:21;13.07;;;8.05;;
73266;SDS011;61495;53.400;7.608;2023-03-01T00:18:55;13.82;;;7.50;;
73266;SDS011;61495;53.400;7.608;2023-03-01T00:21:22;15.13;;;7.20;;
73266;SDS011;61495;53.400;7.608;2023-03-01T00:23:48;15.85;;;8.02;;
73266;SDS011;61495;53.400;7.608;2023-03-01T00:26:14;13.18;;;7.30;;
73266;SDS011;61495;53.400;7.608;2023-03-01T00:28:40;16.67;;;8.68;;
73266;SDS011;61495;53.400;7.608;2023-03-01T00:31:07;14.50;;;8.63;;
73266;SDS011;61495;53.400;7.608;2023-03-01T00:33:34;17.15;;;8.35;;
73266;SDS011;61495;53.400;7.608;2023-03-01T00:36:00;12.77;;;7.80;;
73266;SDS011;61495;53.400;7.608;2023-03-01T00:38:25;13.73;;;7.72;;
73266;SDS011;61495;53.400;7.608;2023-03-01T00:40:51;12.18;;;7.18;;
73266;SDS011;61495;53.400;7.608;2023-03-01T00:43:17;16.95;;;8.55;;
73266;SDS011;61495;53.400;7.608;2023-03-01T00:45:43;17.10;;;8.50;;
73266;SDS011;61495;53.400;7.608;2023-03-01T00:48:08;18.15;;;8.68;;
73266;SDS011;61495;53.400;7.608;2023-03-01T00:50:33;17.77;;;10.07;;
73266;SDS011;61495;53.400;7.608;2023-03-01T00:52:59;17.52;;;8.68;;
73266;SDS011;61495;53.400;7.608;2023-03-01T00:55:24;16.77;;;9.00;;
73266;SDS011;61495;53.400;7.608;2023-03-01T00:57:50;15.80;;;8.13;;
73266;SDS011;61495;53.400;7.608;2023-03-01T01:00:16;15.63;;;8.13;;
73266;SDS011;61495;53.400;7.608;2023-03-01T01:02:42;16.33;;;8.73;;
73266;SDS011;61495;53.400;7.608;2023-03-01T01:05:07;19.83;;;8.80;;
73266;SDS011;61495;53.400;7.608;2023-03-01T01:07:33;17.60;;;8.43;;
73266;SDS011;61495;53.400;7.608;2023-03-01T01:09:58;15.48;;;8.60;;
73266;SDS011;61495;53.400;7.608;2023-03-01T01:12:24;17.77;;;9.27;;
73266;SDS011;61495;53.400;7.608;2023-03-01T01:14:49;16.45;;;8.30;;
73266;SDS011;61495;53.400;7.608;2023-03-01T01:17:14;17.52;;;8.82;;
73266;SDS011;61495;53.400;7.608;2023-03-01T01:19:40;19.05;;;8.98;;
73266;SDS011;61495;53.400;7.608;2023-03-01T01:22:05;17.40;;;8.80;;
73266;SDS011;61495;53.400;7.608;2023-03-01T01:24:31;16.23;;;8.75;;
73266;SDS011;61495;53.400;7.608;2023-03-01T01:26:56;14.63;;;7.85;;
73266;SDS011;61495;53.400;7.608;2023-03-01T01:29:21;16.27;;;8.10;;
73266;SDS011;61495;53.400;7.608;2023-03-01T01:31:47;20.02;;;8.25;;
73266;SDS011;61495;53.400;7.608;2023-03-01T01:36:39;21.55;;;9.80;;
73266;SDS011;61495;53.400;7.608;2023-03-01T01:39:05;22.63;;;10.27;;
73266;SDS011;61495;53.400;7.608;2023-03-01T01:41:30;23.92;;;11.77;;
73266;SDS011;61495;53.400;7.608;2023-03-01T01:52:09;26.10;;;10.98;;
73266;SDS011;61495;53.400;7.608;2023-03-01T01:57:37;30.75;;;12.50;;
73266;SDS011;61495;53.400;7.608;2023-03-01T02:00:11;26.27;;;12.13;;
73266;SDS011;61495;53.400;7.608;2023-03-01T02:02:39;28.92;;;13.52;;
73266;SDS011;61495;53.400;7.608;2023-03-01T02:07:44;26.05;;;12.05;;
73266;SDS011;61495;53.400;7.608;2023-03-01T02:10:11;27.88;;;13.15;;
73266;SDS011;61495;53.400;7.608;2023-03-01T02:12:36;30.77;;;13.15;;
73266;SDS011;61495;53.400;7.608;2023-03-01T02:15:04;29.50;;;13.32;;
73266;SDS011;61495;53.400;7.608;2023-03-01T02:17:30;29.50;;;13.65;;
73266;SDS011;61495;53.400;7.608;2023-03-01T02:20:03;24.35;;;13.48;;
73266;SDS011;61495;53.400;7.608;2023-03-01T02:22:39;36.72;;;14.43;;
73266;SDS011;61495;53.400;7.608;2023-03-01T02:25:12;27.88;;;14.05;;
73266;SDS011;61495;53.400;7.608;2023-03-01T02:28:06;25.70;;;11.80;;
73266;SDS011;61495;53.400;7.608;2023-03-01T02:30:28;25.13;;;12.88;;
73266;SDS011;61495;53.400;7.608;2023-03-01T02:32:56;26.13;;;11.05;;
73266;SDS011;61495;53.400;7.608;2023-03-01T02:35:35;24.52;;;12.70;;
73266;SDS011;61495;53.400;7.608;2023-03-01T02:38:05;23.83;;;11.60;;
73266;SDS011;61495;53.400;7.608;2023-03-01T02:40:33;22.80;;;12.00;;
73266;SDS011;61495;53.400;7.608;2023-03-01T02:43:00;25.27;;;11.57;;
73266;SDS011;61495;53.400;7.608;2023-03-01T02:45:26;23.92;;;11.63;;
73266;SDS011;61495;53.400;7.608;2023-03-01T02:52:56;20.65;;;11.93;;
73266;SDS011;61495;53.400;7.608;2023-03-01T02:55:21;26.85;;;13.00;;
73266;SDS011;61495;53.400;7.608;2023-03-01T02:57:47;27.25;;;12.52;;
73266;SDS011;61495;53.400;7.608;2023-03-01T03:00:20;24.85;;;12.05;;
73266;SDS011;61495;53.400;7.608;2023-03-01T03:02:51;22.67;;;11.25;;
73266;SDS011;61495;53.400;7.608;2023-03-01T03:05:18;25.20;;;12.52;;
73266;SDS011;61495;53.400;7.608;2023-03-01T03:07:46;24.48;;;12.32;;
73266;SDS011;61495;53.400;7.608;2023-03-01T03:10:18;28.05;;;12.43;;
73266;SDS011;61495;53.400;7.608;2023-03-01T03:12:49;28.25;;;12.32;;
73266;SDS011;61495;53.400;7.608;2023-03-01T03:15:16;29.23;;;13.77;;
73266;SDS011;61495;53.400;7.608;2023-03-01T03:17:42;28.27;;;12.52;;
73266;SDS011;61495;53.400;7.608;2023-03-01T03:20:08;28.50;;;14.48;;
73266;SDS011;61495;53.400;7.608;2023-03-01T03:22:40;28.75;;;12.48;;
73266;SDS011;61495;53.400;7.608;2023-03-01T03:25:08;27.50;;;13.15;;
73266;SDS011;61495;53.400;7.608;2023-03-01T03:27:35;26.00;;;12.68;;
73266;SDS011;61495;53.400;7.608;2023-03-01T03:30:02;29.88;;;12.48;;
73266;SDS011;61495;53.400;7.608;2023-03-01T03:32:30;26.50;;;11.50;;
73266;SDS011;61495;53.400;7.608;2023-03-01T03:34:55;31.25;;;13.88;;
73266;SDS011;61495;53.400;7.608;2023-03-01T03:37:20;23.30;;;11.67;;
73266;SDS011;61495;53.400;7.608;2023-03-01T03:40:04;22.08;;;10.07;;
73266;SDS011;61495;53.400;7.608;2023-03-01T03:42:40;29.75;;;12.23;;
73266;SDS011;61495;53.400;7.608;2023-03-01T03:45:06;35.25;;;13.73;;
73266;SDS011;61495;53.400;7.608;2023-03-01T03:47:31;30.30;;;12.32;;
73266;SDS011;61495;53.400;7.608;2023-03-01T03:49:57;24.53;;;11.73;;
73266;SDS011;61495;53.400;7.608;2023-03-01T03:52:22;27.53;;;12.80;;
73266;SDS011;61495;53.400;7.608;2023-03-01T03:54:47;30.57;;;12.40;;
73266;SDS011;61495;53.400;7.608;2023-03-01T03:57:13;27.13;;;11.07;;
73266;SDS011;61495;53.400;7.608;2023-03-01T03:59:38;30.80;;;14.30;;
73266;SDS011;61495;53.400;7.608;2023-03-01T04:02:03;25.40;;;11.83;;
73266;SDS011;61495;53.400;7.608;2023-03-01T04:04:29;19.58;;;10.45;;
73266;SDS011;61495;53.400;7.608;2023-03-01T04:06:54;19.42;;;10.23;;
73266;SDS011;61495;53.400;7.608;2023-03-01T04:09:19;21.63;;;10.77;;
73266;SDS011;61495;53.400;7.608;2023-03-01T04:11:45;23.88;;;10.77;;
73266;SDS011;61495;53.400;7.608;2023-03-01T04:14:10;23.33;;;11.30;;
73266;SDS011;61495;53.400;7.608;2023-03-01T04:16:35;26.67;;;11.68;;
73266;SDS011;61495;53.400;7.608;2023-03-01T04:19:01;26.23;;;11.10;;
73266;SDS011;61495;53.400;7.608;2023-03-01T04:21:26;22.80;;;11.35;;
73266;SDS011;61495;53.400;7.608;2023-03-01T04:23:51;19.15;;;9.57;;
73266;SDS011;61495;53.400;7.608;2023-03-01T04:26:17;20.42;;;10.43;;
73266;SDS011;61495;53.400;7.608;2023-03-01T04:28:44;25.85;;;11.25;;
73266;SDS011;61495;53.400;7.608;2023-03-01T04:31:12;23.60;;;10.68;;
73266;SDS011;61495;53.400;7.608;2023-03-01T04:33:44;23.67;;;11.13;;
73266;SDS011;61495;53.400;7.608;2023-03-01T04:36:12;26.60;;;12.25;;
73266;SDS011;61495;53.400;7.608;2023-03-01T04:38:39;20.65;;;10.27;;
73266;SDS011;61495;53.400;7.608;2023-03-01T04:41:06;23.65;;;11.27;;
73266;SDS011;61495;53.400;7.608;2023-03-01T04:43:33;22.30;;;12.13;;
73266;SDS011;61495;53.400;7.608;2023-03-01T04:48:36;19.60;;;9.95;;
73266;SDS011;61495;53.400;7.608;2023-03-01T04:51:02;20.05;;;9.93;;
73266;SDS011;61495;53.400;7.608;2023-03-01T04:53:28;27.35;;;11.57;;
73266;SDS011;61495;53.400;7.608;2023-03-01T04:55:54;26.92;;;10.98;;
73266;SDS011;61495;53.400;7.608;2023-03-01T04:58:21;23.52;;;12.15;;
73266;SDS011;61495;53.400;7.608;2023-03-01T05:00:48;28.27;;;13.10;;
73266;SDS011;61495;53.400;7.608;2023-03-01T05:03:13;34.05;;;12.55;;
73266;SDS011;61495;53.400;7.608;2023-03-01T05:05:42;29.42;;;13.07;;
73266;SDS011;61495;53.400;7.608;2023-03-01T05:10:42;26.48;;;11.27;;
73266;SDS011;61495;53.400;7.608;2023-03-01T05:13:10;26.95;;;12.23;;
73266;SDS011;61495;53.400;7.608;2023-03-01T05:15:38;35.50;;;15.10;;
73266;SDS011;61495;53.400;7.608;2023-03-01T05:18:04;35.20;;;14.40;;
73266;SDS011;61495;53.400;7.608;2023-03-01T05:20:32;32.38;;;14.95;;
73266;SDS011;61495;53.400;7.608;2023-03-01T05:23:01;33.28;;;14.27;;
73266;SDS011;61495;53.400;7.608;2023-03-01T05:25:30;33.00;;;14.13;;
73266;SDS011;61495;53.400;7.608;2023-03-01T05:27:58;33.42;;;14.82;;
73266;SDS011;61495;53.400;7.608;2023-03-01T05:32:56;25.75;;;10.30;;
73266;SDS011;61495;53.400;7.608;2023-03-01T05:35:21;24.27;;;10.87;;
73266;SDS011;61495;53.400;7.608;2023-03-01T05:37:47;26.92;;;12.50;;
73266;SDS011;61495;53.400;7.608;2023-03-01T05:40:15;25.08;;;11.73;;
73266;SDS011;61495;53.400;7.608;2023-03-01T05:42:43;27.25;;;12.05;;
73266;SDS011;61495;53.400;7.608;2023-03-01T05:45:13;25.52;;;9.85;;
73266;SDS011;61495;53.400;7.608;2023-03-01T05:47:40;24.05;;;10.65;;
73266;SDS011;61495;53.400;7.608;2023-03-01T05:50:11;24.75;;;11.50;;
73266;SDS011;61495;53.400;7.608;2023-03-01T05:52:37;27.10;;;12.25;;
73266;SDS011;61495;53.400;7.608;2023-03-01T05:55:03;31.80;;;14.40;;
73266;SDS011;61495;53.400;7.608;2023-03-01T05:57:29;27.63;;;14.10;;
73266;SDS011;61495;53.400;7.608;2023-03-01T05:59:54;30.88;;;13.13;;
73266;SDS011;61495;53.400;7.608;2023-03-01T06:02:20;27.70;;;13.07;;
73266;SDS011;61495;53.400;7.608;2023-03-01T06:04:45;26.40;;;12.37;;
73266;SDS011;61495;53.400;7.608;2023-03-01T06:07:10;29.53;;;11.50;;
73266;SDS011;61495;53.400;7.608;2023-03-01T06:09:36;25.73;;;11.43;;
73266;SDS011;61495;53.400;7.608;2023-03-01T06:12:01;27.20;;;11.50;;
73266;SDS011;61495;53.400;7.608;2023-03-01T06:14:36;27.33;;;10.98;;
73266;SDS011;61495;53.400;7.608;2023-03-01T06:17:01;23.40;;;10.93;;
73266;SDS011;61495;53.400;7.608;2023-03-01T06:19:26;19.90;;;8.40;;
73266;SDS011;61495;53.400;7.608;2023-03-01T06:21:52;20.08;;;8.45;;
73266;SDS011;61495;53.400;7.608;2023-03-01T06:24:17;14.35;;;8.35;;
73266;SDS011;61495;53.400;7.608;2023-03-01T06:26:42;18.37;;;9.03;;
73266;SDS011;61495;53.400;7.608;2023-03-01T06:29:08;16.73;;;7.38;;
73266;SDS011;61495;53.400;7.608;2023-03-01T06:31:33;15.40;;;7.72;;
73266;SDS011;61495;53.400;7.608;2023-03-01T06:33:59;15.60;;;6.00;;
73266;SDS011;61495;53.400;7.608;2023-03-01T06:36:24;16.17;;;7.20;;
73266;SDS011;61495;53.400;7.608;2023-03-01T06:38:50;13.63;;;6.95;;
73266;SDS011;61495;53.400;7.608;2023-03-01T06:41:16;16.00;;;7.25;;
73266;SDS011;61495;53.400;7.608;2023-03-01T06:43:42;17.20;;;7.23;;
73266;SDS011;61495;53.400;7.608;2023-03-01T06:46:07;15.82;;;7.82;;
73266;SDS011;61495;53.400;7.608;2023-03-01T06:48:33;13.15;;;6.50;;
73266;SDS011;61495;53.400;7.608;2023-03-01T06:50:59;15.95;;;7.65;;
73266;SDS011;61495;53.400;7.608;2023-03-01T06:53:25;14.75;;;7.90;;
73266;SDS011;61495;53.400;7.608;2023-03-01T06:55:55;14.75;;;6.60;;
73266;SDS011;61495;53.400;7.608;2023-03-01T06:58:21;13.68;;;6.72;;
73266;SDS011;61495;53.400;7.608;2023-03-01T07:00:47;14.25;;;6.65;;
73266;SDS011;61495;53.400;7.608;2023-03-01T07:03:12;11.85;;;6.03;;
73266;SDS011;61495;53.400;7.608;2023-03-01T07:05:37;16.93;;;7.47;;
73266;SDS011;61495;53.400;7.608;2023-03-01T07:08:03;16.50;;;7.72;;
73266;SDS011;61495;53.400;7.608;2023-03-01T07:10:28;16.98;;;8.38;;
73266;SDS011;61495;53.400;7.608;2023-03-01T07:12:54;16.48;;;7.85;;
73266;SDS011;61495;53.400;7.608;2023-03-01T07:15:23;16.52;;;8.65;;
73266;SDS011;61495;53.400;7.608;2023-03-01T07:17:49;14.20;;;8.15;;
73266;SDS011;61495;53.400;7.608;2023-03-01T07:20:16;19.52;;;9.35;;
73266;SDS011;61495;53.400;7.608;2023-03-01T07:22:42;15.02;;;8.57;;
73266;SDS011;61495;53.400;7.608;2023-03-01T07:25:08;16.10;;;8.00;;
73266;SDS011;61495;53.400;7.608;2023-03-01T07:27:35;14.00;;;7.35;;
73266;SDS011;61495;53.400;7.608;2023-03-01T07:30:00;14.05;;;7.00;;
73266;SDS011;61495;53.400;7.608;2023-03-01T07:32:26;18.85;;;7.68;;
73266;SDS011;61495;53.400;7.608;2023-03-01T07:34:51;16.60;;;7.83;;
73266;SDS011;61495;53.400;7.608;2023-03-01T07:37:16;16.15;;;8.35;;
73266;SDS011;61495;53.400;7.608;2023-03-01T07:39:42;16.80;;;7.82;;
73266;SDS011;61495;53.400;7.608;2023-03-01T07:42:07;18.42;;;8.27;;
73266;SDS011;61495;53.400;7.608;2023-03-01T07:44:33;15.23;;;8.35;;
73266;SDS011;61495;53.400;7.608;2023-03-01T07:46:59;16.83;;;8.43;;
73266;SDS011;61495;53.400;7.608;2023-03-01T07:49:25;17.38;;;9.05;;
73266;SDS011;61495;53.400;7.608;2023-03-01T07:51:53;19.10;;;9.25;;
73266;SDS011;61495;53.400;7.608;2023-03-01T07:54:19;19.08;;;8.60;;
73266;SDS011;61495;53.400;7.608;2023-03-01T07:56:44;20.42;;;8.73;;
73266;SDS011;61495;53.400;7.608;2023-03-01T07:59:09;18.48;;;8.85;;
73266;SDS011;61495;53.400;7.608;2023-03-01T08:01:35;17.77;;;9.40;;
73266;SDS011;61495;53.400;7.608;2023-03-01T08:04:00;18.95;;;8.75;;
73266;SDS011;61495;53.400;7.608;2023-03-01T08:06:26;18.02;;;8.82;;
73266;SDS011;61495;53.400;7.608;2023-03-01T08:08:52;22.15;;;9.60;;
73266;SDS011;61495;53.400;7.608;2023-03-01T08:11:20;20.02;;;9.63;;
73266;SDS011;61495;53.400;7.608;2023-03-01T08:13:46;22.33;;;9.75;;
73266;SDS011;61495;53.400;7.608;2023-03-01T08:16:13;19.42;;;8.32;;
73266;SDS011;61495;53.400;7.608;2023-03-01T08:18:40;16.95;;;9.15;;
73266;SDS011;61495;53.400;7.608;2023-03-01T08:21:06;18.42;;;8.77;;
73266;SDS011;61495;53.400;7.608;2023-03-01T08:23:39;18.63;;;8.93;;
73266;SDS011;61495;53.400;7.608;2023-03-01T08:28:39;18.13;;;7.85;;
73266;SDS011;61495;53.400;7.608;2023-03-01T08:31:22;16.00;;;8.15;;
73266;SDS011;61495;53.400;7.608;2023-03-01T08:33:54;23.98;;;10.98;;
73266;SDS011;61495;53.400;7.608;2023-03-01T08:36:25;23.67;;;10.25;;
73266;SDS011;61495;53.400;7.608;2023-03-01T08:38:53;24.60;;;12.73;;
73266;SDS011;61495;53.400;7.608;2023-03-01T08:43:44;22.52;;;10.15;;
73266;SDS011;61495;53.400;7.608;2023-03-01T08:46:10;25.30;;;10.60;;
73266;SDS011;61495;53.400;7.608;2023-03-01T08:48:36;21.83;;;10.20;;
73266;SDS011;61495;53.400;7.608;2023-03-01T08:51:11;17.25;;;9.07;;
73266;SDS011;61495;53.400;7.608;2023-03-01T08:53:41;20.95;;;9.07;;
73266;SDS011;61495;53.400;7.608;2023-03-01T08:56:07;17.60;;;8.73;;
73266;SDS011;61495;53.400;7.608;2023-03-01T09:00:58;16.03;;;8.40;;
73266;SDS011;61495;53.400;7.608;2023-03-01T09:05:50;27.00;;;10.18;;
73266;SDS011;61495;53.400;7.608;2023-03-01T09:08:16;21.98;;;11.30;;
73266;SDS011;61495;53.400;7.608;2023-03-01T09:10:42;25.70;;;12.45;;
73266;SDS011;61495;53.400;7.608;2023-03-01T09:13:08;22.33;;;11.63;;
73266;SDS011;61495;53.400;7.608;2023-03-01T09:15:33;21.65;;;10.60;;
73266;SDS011;61495;53.400;7.608;2023-03-01T09:20:24;18.33;;;8.45;;
73266;SDS011;61495;53.400;7.608;2023-03-01T09:25:15;15.57;;;7.67;;
73266;SDS011;61495;53.400;7.608;2023-03-01T09:30:05;12.90;;;6.13;;
73266;SDS011;61495;53.400;7.608;2023-03-01T09:32:32;11.77;;;6.05;;
73266;SDS011;61495;53.400;7.608;2023-03-01T09:37:32;13.10;;;6.82;;
73266;SDS011;61495;53.400;7.608;2023-03-01T09:39:59;14.77;;;7.65;;
73266;SDS011;61495;53.400;7.608;2023-03-01T09:45:10;20.17;;;8.85;;
73266;SDS011;61495;53.400;7.608;2023-03-01T09:47:41;22.75;;;10.82;;
73266;SDS011;61495;53.400;7.608;2023-03-01T09:52:43;20.42;;;10.88;;
73266;SDS011;61495;53.400;7.608;2023-03-01T09:55:39;22.38;;;11.13;;
73266;SDS011;61495;53.400;7.608;2023-03-01T10:01:23;19.05;;;10.95;;
73266;SDS011;61495;53.400;7.608;2023-03-01T10:06:34;25.02;;;12.57;;
73266;SDS011;61495;53.400;7.608;2023-03-01T10:09:05;24.33;;;13.48;;
73266;SDS011;61495;53.400;7.608;2023-03-01T10:11:36;21.83;;;12.27;;
73266;SDS011;61495;53.400;7.608;2023-03-01T10:16:57;22.92;;;13.70;;
73266;SDS011;61495;53.400;7.608;2023-03-01T10:19:38;28.83;;;14.40;;
73266;SDS011;61495;53.400;7.608;2023-03-01T10:22:16;25.88;;;13.93;;
73266;SDS011;61495;53.400;7.608;2023-03-01T10:24:43;22.90;;;13.45;;
73266;SDS011;61495;53.400;7.608;2023-03-01T10:27:14;25.00;;;13.43;;
73266;SDS011;61495;53.400;7.608;2023-03-01T10:32:47;26.90;;;14.77;;
73266;SDS011;61495;53.400;7.608;2023-03-01T10:35:23;27.02;;;13.73;;
73266;SDS011;61495;53.400;7.608;2023-03-01T10:40:31;21.77;;;12.10;;
73266;SDS011;61495;53.400;7.608;2023-03-01T10:42:59;16.75;;;10.15;;
73266;SDS011;61495;53.400;7.608;2023-03-01T10:45:37;21.95;;;11.27;;
73266;SDS011;61495;53.400;7.608;2023-03-01T10:48:20;22.50;;;11.23;;
73266;SDS011;61495;53.400;7.608;2023-03-01T10:51:04;18.98;;;9.75;;
73266;SDS011;61495;53.400;7.608;2023-03-01T10:58:39;20.92;;;9.98;;
73266;SDS011;61495;53.400;7.608;2023-03-01T11:03:41;16.85;;;9.30;;
73266;SDS011;61495;53.400;7.608;2023-03-01T11:08:39;15.93;;;8.50;;
73266;SDS011;61495;53.400;7.608;2023-03-01T11:14:22;15.38;;;8.25;;
73266;SDS011;61495;53.400;7.608;2023-03-01T11:16:41;18.35;;;8.95;;
73266;SDS011;61495;53.400;7.608;2023-03-01T11:21:34;18.33;;;9.13;;
73266;SDS011;61495;53.400;7.608;2023-03-01T11:24:05;17.48;;;8.85;;
73266;SDS011;61495;53.400;7.608;2023-03-01T11:26:36;16.33;;;8.13;;
73266;SDS011;61495;53.400;7.608;2023-03-01T11:29:05;17.65;;;8.73;;
73266;SDS011;61495;53.400;7.608;2023-03-01T11:31:38;17.55;;;9.05;;
73266;SDS011;61495;53.400;7.608;2023-03-01T11:34:07;18.40;;;9.55;;
73266;SDS011;61495;53.400;7.608;2023-03-01T11:36:52;16.83;;;8.63;;
73266;SDS011;61495;53.400;7.608;2023-03-01T11:42:17;17.10;;;8.63;;
73266;SDS011;61495;53.400;7.608;2023-03-01T11:44:46;17.45;;;9.38;;
73266;SDS011;61495;53.400;7.608;2023-03-01T11:53:02;18.50;;;9.85;;
73266;SDS011;61495;53.400;7.608;2023-03-01T11:55:50;17.85;;;10.88;;
73266;SDS011;61495;53.400;7.608;2023-03-01T11:58:27;18.23;;;10.27;;
73266;SDS011;61495;53.400;7.608;2023-03-01T12:13:13;15.25;;;8.80;;
73266;SDS011;61495;53.400;7.608;2023-03-01T12:15:30;19.02;;;9.50;;
73266;SDS011;61495;53.400;7.608;2023-03-01T12:23:45;16.55;;;9.05;;
73266;SDS011;61495;53.400;7.608;2023-03-01T12:34:30;15.13;;;8.95;;
73266;SDS011;61495;53.400;7.608;2023-03-01T12:37:09;14.60;;;7.75;;
73266;SDS011;61495;53.400;7.608;2023-03-01T12:39:59;11.68;;;7.53;;
73266;SDS011;61495;53.400;7.608;2023-03-01T12:51:23;16.77;;;9.25;;
73266;SDS011;61495;53.400;7.608;2023-03-01T12:53:52;15.60;;;8.18;;
73266;SDS011;61495;53.400;7.608;2023-03-01T12:56:21;11.93;;;7.18;;
73266;SDS011;61495;53.400;7.608;2023-03-01T13:04:28;12.13;;;7.82;;
73266;SDS011;61495;53.400;7.608;2023-03-01T13:17:47;13.07;;;7.80;;
73266;SDS011;61495;53.400;7.608;2023-03-01T13:20:15;11.25;;;6.93;;
73266;SDS011;61495;53.400;7.608;2023-03-01T13:22:43;12.90;;;7.28;;
73266;SDS011;61495;53.400;7.608;2023-03-01T13:25:12;12.32;;;6.60;;
73266;SDS011;61495;53.400;7.608;2023-03-01T13:27:42;13.05;;;7.07;;
73266;SDS011;61495;53.400;7.608;2023-03-01T13:33:26;12.80;;;8.13;;
73266;SDS011;61495;53.400;7.608;2023-03-01T13:35:47;13.50;;;7.35;;
73266;SDS011;61495;53.400;7.608;2023-03-01T13:55:16;15.35;;;7.75;;
73266;SDS011;61495;53.400;7.608;2023-03-01T13:57:45;14.43;;;7.43;;
73266;SDS011;61495;53.400;7.608;2023-03-01T14:05:29;13.45;;;8.43;;
73266;SDS011;61495;53.400;7.608;2023-03-01T14:07:56;14.32;;;8.27;;
73266;SDS011;61495;53.400;7.608;2023-03-01T14:10:21;14.52;;;8.52;;
73266;SDS011;61495;53.400;7.608;2023-03-01T14:13:01;15.88;;;9.10;;
73266;SDS011;61495;53.400;7.608;2023-03-01T14:16:33;15.48;;;8.40;;
73266;SDS011;61495;53.400;7.608;2023-03-01T14:21:27;15.55;;;8.52;;
73266;SDS011;61495;53.400;7.608;2023-03-01T14:23:53;13.20;;;8.85;;
73266;SDS011;61495;53.400;7.608;2023-03-01T14:26:22;14.70;;;8.75;;
73266;SDS011;61495;53.400;7.608;2023-03-01T14:28:48;12.32;;;8.18;;
73266;SDS011;61495;53.400;7.608;2023-03-01T14:31:31;13.73;;;8.95;;
73266;SDS011;61495;53.400;7.608;2023-03-01T14:34:00;13.73;;;8.05;;
73266;SDS011;61495;53.400;7.608;2023-03-01T14:36:27;13.38;;;8.43;;
73266;SDS011;61495;53.400;7.608;2023-03-01T14:38:54;13.20;;;8.00;;
73266;SDS011;61495;53.400;7.608;2023-03-01T14:41:20;14.85;;;8.68;;
73266;SDS011;61495;53.400;7.608;2023-03-01T14:43:50;13.70;;;8.40;;
73266;SDS011;61495;53.400;7.608;2023-03-01T14:46:20;12.45;;;8.75;;
73266;SDS011;61495;53.400;7.608;2023-03-01T14:48:51;13.30;;;7.88;;
73266;SDS011;61495;53.400;7.608;2023-03-01T14:51:20;12.50;;;7.43;;
73266;SDS011;61495;53.400;7.608;2023-03-01T14:53:46;14.88;;;9.23;;
73266;SDS011;61495;53.400;7.608;2023-03-01T14:56:12;12.85;;;8.35;;
73266;SDS011;61495;53.400;7.608;2023-03-01T14:58:39;12.20;;;8.02;;
73266;SDS011;61495;53.400;7.608;2023-03-01T15:01:05;17.05;;;8.63;;
73266;SDS011;61495;53.400;7.608;2023-03-01T15:03:43;13.02;;;7.25;;
73266;SDS011;61495;53.400;7.608;2023-03-01T15:06:12;13.43;;;7.47;;
73266;SDS011;61495;53.400;7.608;2023-03-01T15:08:42;13.63;;;8.38;;
73266;SDS011;61495;53.400;7.608;2023-03-01T15:13:39;13.55;;;8.02;;
73266;SDS011;61495;53.400;7.608;2023-03-01T15:18:32;13.32;;;8.18;;
73266;SDS011;61495;53.400;7.608;2023-03-01T15:21:06;16.40;;;8.02;;
73266;SDS011;61495;53.400;7.608;2023-03-01T15:23:40;16.08;;;8.43;;
73266;SDS011;61495;53.400;7.608;2023-03-01T15:26:06;15.52;;;9.02;;
73266;SDS011;61495;53.400;7.608;2023-03-01T15:28:42;14.77;;;9.40;;
73266;SDS011;61495;53.400;7.608;2023-03-01T15:33:49;12.85;;;7.90;;
73266;SDS011;61495;53.400;7.608;2023-03-01T15:42:02;11.88;;;7.65;;
73266;SDS011;61495;53.400;7.608;2023-03-01T15:44:34;13.18;;;8.65;;
73266;SDS011;61495;53.400;7.608;2023-03-01T15:47:01;12.30;;;8.00;;
73266;SDS011;61495;53.400;7.608;2023-03-01T15:49:42;12.60;;;6.63;;
73266;SDS011;61495;53.400;7.608;2023-03-01T15:52:12;11.85;;;6.63;;
73266;SDS011;61495;53.400;7.608;2023-03-01T15:54:43;11.85;;;6.85;;
73266;SDS011;61495;53.400;7.608;2023-03-01T15:57:13;13.65;;;8.20;;
73266;SDS011;61495;53.400;7.608;2023-03-01T15:59:41;11.80;;;8.02;;
73266;SDS011;61495;53.400;7.608;2023-03-01T16:02:11;12.48;;;8.32;;
73266;SDS011;61495;53.400;7.608;2023-03-01T16:04:40;12.30;;;8.30;;
73266;SDS011;61495;53.400;7.608;2023-03-01T16:07:06;11.05;;;6.70;;
73266;SDS011;61495;53.400;7.608;2023-03-01T16:09:34;14.50;;;8.60;;
73266;SDS011;61495;53.400;7.608;2023-03-01T16:12:00;11.82;;;7.78;;
73266;SDS011;61495;53.400;7.608;2023-03-01T16:14:29;14.32;;;7.75;;
73266;SDS011;61495;53.400;7.608;2023-03-01T16:16:55;12.93;;;6.75;;
73266;SDS011;61495;53.400;7.608;2023-03-01T16:19:20;12.63;;;7.03;;
73266;SDS011;61495;53.400;7.608;2023-03-01T16:21:46;12.35;;;7.47;;
73266;SDS011;61495;53.400;7.608;2023-03-01T16:24:13;13.95;;;7.50;;
73266;SDS011;61495;53.400;7.608;2023-03-01T16:26:39;13.73;;;9.13;;
73266;SDS011;61495;53.400;7.608;2023-03-01T16:29:05;14.63;;;8.15;;
73266;SDS011;61495;53.400;7.608;2023-03-01T16:31:30;13.07;;;8.48;;
73266;SDS011;61495;53.400;7.608;2023-03-01T16:33:56;13.57;;;8.93;;
73266;SDS011;61495;53.400;7.608;2023-03-01T16:36:24;15.82;;;8.98;;
73266;SDS011;61495;53.400;7.608;2023-03-01T16:38:53;11.55;;;7.95;;
73266;SDS011;61495;53.400;7.608;2023-03-01T16:41:19;15.20;;;8.88;;
73266;SDS011;61495;53.400;7.608;2023-03-01T16:43:47;14.40;;;8.82;;
73266;SDS011;61495;53.400;7.608;2023-03-01T16:46:14;14.52;;;8.13;;
73266;SDS011;61495;53.400;7.608;2023-03-01T16:48:41;14.52;;;9.20;;
73266;SDS011;61495;53.400;7.608;2023-03-01T16:51:07;13.55;;;8.05;;
73266;SDS011;61495;53.400;7.608;2023-03-01T16:53:33;12.90;;;7.90;;
73266;SDS011;61495;53.400;7.608;2023-03-01T16:56:01;13.13;;;8.68;;
73266;SDS011;61495;53.400;7.608;2023-03-01T16:58:28;12.48;;;7.95;;
73266;SDS011;61495;53.400;7.608;2023-03-01T17:00:54;14.77;;;7.72;;
73266;SDS011;61495;53.400;7.608;2023-03-01T17:03:21;11.73;;;7.60;;
73266;SDS011;61495;53.400;7.608;2023-03-01T17:05:51;11.55;;;6.97;;
73266;SDS011;61495;53.400;7.608;2023-03-01T17:08:16;12.48;;;7.28;;
73266;SDS011;61495;53.400;7.608;2023-03-01T17:10:42;11.52;;;7.30;;
73266;SDS011;61495;53.400;7.608;2023-03-01T17:13:10;14.15;;;7.95;;
73266;SDS011;61495;53.400;7.608;2023-03-01T17:15:39;12.45;;;6.68;;
73266;SDS011;61495;53.400;7.608;2023-03-01T17:18:06;10.23;;;6.65;;
73266;SDS011;61495;53.400;7.608;2023-03-01T17:20:32;12.00;;;6.93;;
73266;SDS011;61495;53.400;7.608;2023-03-01T17:22:57;12.23;;;6.70;;
73266;SDS011;61495;53.400;7.608;2023-03-01T17:25:23;13.80;;;6.63;;
73266;SDS011;61495;53.400;7.608;2023-03-01T17:27:49;11.38;;;6.85;;
73266;SDS011;61495;53.400;7.608;2023-03-01T17:30:14;10.82;;;6.43;;
73266;SDS011;61495;53.400;7.608;2023-03-01T17:32:40;12.20;;;6.00;;
73266;SDS011;61495;53.400;7.608;2023-03-01T17:35:05;10.57;;;6.85;;
73266;SDS011;61495;53.400;7.608;2023-03-01T17:37:32;10.32;;;6.00;;
73266;SDS011;61495;53.400;7.608;2023-03-01T17:39:57;9.90;;;5.95;;
73266;SDS011;61495;53.400;7.608;2023-03-01T17:42:23;10.55;;;6.18;;